Time;durP1;ratioP1;P1;durP2;ratioP2;P2;SDS_P1;SDS_P2;PMS_P1;PMS_P2;Temp;Humidity;BMP_temperature;BMP_pressure;BME280_temperature;BME280_humidity;BME280_pressure;Samples;Min_cycle;Max_cycle;Signal;HPM_P1;HPM_P2
2022/01/21 00:01:07;;;;;;;3.35;0.95;;;18.50;43.00;;;;;;5069775;28;20025;-66
2022/01/21 00:03:33;;;;;;;2.72;1.05;;;18.50;43.00;;;;;;5073035;28;20068;-65
2022/01/21 00:06:00;;;;;;;2.00;0.77;;;18.50;43.00;;;;;;5073998;28;20062;-65
2022/01/21 00:08:25;;;;;;;3.28;1.05;;;18.50;43.00;;;;;;5070808;28;20034;-65
2022/01/21 00:10:51;;;;;;;2.33;0.70;;;18.50;43.00;;;;;;5062990;28;20116;-66
2022/01/21 00:13:28;;;;;;;1.55;0.88;;;18.50;43.00;;;;;;5038915;28;20129;-66
2022/01/21 00:15:53;;;;;;;3.67;0.93;;;18.50;43.00;;;;;;5067632;28;20032;-65
2022/01/21 00:18:19;;;;;;;2.58;1.00;;;18.40;43.00;;;;;;5056125;28;20396;-65
2022/01/21 00:31:41;;;;;;;3.67;0.90;;;18.30;43.10;;;;;;5059877;28;20139;-65
2022/01/21 00:34:07;;;;;;;3.00;0.90;;;18.30;43.10;;;;;;5072774;28;21733;-65
2022/01/21 00:36:33;;;;;;;2.30;0.90;;;18.40;43.20;;;;;;5062821;28;20051;-65
2022/01/21 00:38:59;;;;;;;3.33;0.75;;;18.40;43.20;;;;;;5065690;28;20029;-65
2022/01/21 00:41:29;;;;;;;2.55;0.90;;;18.40;43.20;;;;;;5071748;28;21459;-67
2022/01/21 00:43:55;;;;;;;5.93;1.10;;;18.40;43.20;;;;;;5062168;28;20021;-66
2022/01/21 00:46:21;;;;;;;2.83;0.95;;;18.40;43.20;;;;;;5071481;28;20039;-67
2022/01/21 00:48:47;;;;;;;2.03;0.73;;;18.30;43.10;;;;;;5066605;28;20032;-67
2022/01/21 00:51:13;;;;;;;2.45;0.93;;;18.30;43.10;;;;;;5070815;28;20039;-67
2022/01/21 00:53:38;;;;;;;2.30;0.70;;;18.30;43.10;;;;;;5066822;28;20105;-66
2022/01/21 00:56:04;;;;;;;2.13;0.77;;;18.30;43.00;;;;;;5071339;28;20060;-66
2022/01/21 00:58:30;;;;;;;2.15;0.63;;;18.30;43.00;;;;;;5070543;28;20036;-66
2022/01/21 01:00:55;;;;;;;2.75;0.73;;;18.20;42.90;;;;;;5071458;28;20464;-66
2022/01/21 01:03:21;;;;;;;2.40;0.73;;;18.30;42.90;;;;;;5073150;28;20363;-66
2022/01/21 01:05:49;;;;;;;1.98;0.90;;;18.30;42.90;;;;;;5072064;28;20036;-66
2022/01/21 01:08:15;;;;;;;3.78;0.93;;;18.20;42.80;;;;;;5055884;28;20144;-66
2022/01/21 01:21:25;;;;;;;2.70;0.80;;;18.10;42.70;;;;;;5064299;28;20121;-66
2022/01/21 01:29:20;;;;;;;1.90;0.93;;;18.00;42.60;;;;;;5064228;28;20036;-66
2022/01/21 01:31:47;;;;;;;2.47;0.60;;;18.00;42.60;;;;;;5066021;28;20477;-66
2022/01/21 01:34:13;;;;;;;1.70;0.85;;;18.00;42.60;;;;;;5070987;28;20405;-66
2022/01/21 01:36:42;;;;;;;2.78;1.30;;;18.00;42.60;;;;;;5057051;28;20469;-67
2022/01/21 01:41:45;;;;;;;2.28;0.80;;;18.00;42.50;;;;;;5074748;28;20140;-67
2022/01/21 01:49:40;;;;;;;1.85;0.77;;;17.90;42.40;;;;;;5064573;28;20051;-66
2022/01/21 01:52:12;;;;;;;3.50;0.85;;;17.90;42.40;;;;;;5063821;28;20032;-67
2022/01/21 01:54:43;;;;;;;1.23;0.52;;;17.90;42.40;;;;;;5062452;28;20035;-66
2022/01/21 01:57:09;;;;;;;3.70;1.00;;;17.80;42.30;;;;;;5073721;28;20419;-66
2022/01/21 01:59:35;;;;;;;1.70;0.70;;;17.80;42.30;;;;;;5066514;28;20036;-66
2022/01/21 02:02:04;;;;;;;2.45;0.68;;;17.80;42.30;;;;;;5071026;28;20037;-66
2022/01/21 02:04:30;;;;;;;2.33;0.93;;;17.80;42.20;;;;;;5058181;28;20401;-66
2022/01/21 02:06:56;;;;;;;2.22;0.70;;;17.80;42.20;;;;;;5075087;28;20127;-66
2022/01/21 02:09:24;;;;;;;1.85;0.90;;;17.80;42.30;;;;;;5071554;28;20035;-66
2022/01/21 02:11:50;;;;;;;1.90;0.73;;;17.80;42.20;;;;;;5061563;28;20488;-66
2022/01/21 02:14:26;;;;;;;1.92;0.93;;;17.80;42.20;;;;;;5059291;28;20063;-67
2022/01/21 02:22:34;;;;;;;3.17;0.80;;;17.70;42.20;;;;;;5061955;28;20047;-67
2022/01/21 02:25:15;;;;;;;2.88;0.73;;;17.70;42.20;;;;;;5064089;28;20078;-66
2022/01/21 02:27:42;;;;;;;1.45;0.65;;;17.60;42.20;;;;;;5054499;28;20032;-66
2022/01/21 02:30:09;;;;;;;2.10;0.68;;;17.70;42.20;;;;;;5071989;28;20468;-66
2022/01/21 02:32:35;;;;;;;1.80;0.85;;;17.60;42.20;;;;;;5063241;28;20037;-67
2022/01/21 02:35:00;;;;;;;4.72;1.25;;;17.60;42.10;;;;;;5062028;28;20195;-67
2022/01/21 02:37:26;;;;;;;2.38;0.80;;;17.60;42.10;;;;;;5058567;28;20447;-66
2022/01/21 02:39:52;;;;;;;2.50;0.93;;;17.60;42.10;;;;;;5061527;28;20036;-66
2022/01/21 02:42:17;;;;;;;2.13;0.98;;;17.60;42.10;;;;;;5073787;28;20036;-67
2022/01/21 02:44:44;;;;;;;2.47;0.70;;;17.60;42.10;;;;;;5069761;28;20033;-67
2022/01/21 02:47:10;;;;;;;2.40;0.65;;;17.60;42.10;;;;;;5068974;28;20514;-66
2022/01/21 02:49:36;;;;;;;2.42;0.70;;;17.60;42.10;;;;;;5063199;28;20050;-67
2022/01/21 02:52:03;;;;;;;2.35;0.80;;;17.60;42.10;;;;;;5044942;28;20033;-66
2022/01/21 02:54:31;;;;;;;2.00;0.75;;;17.50;42.00;;;;;;5059827;28;20078;-66
2022/01/21 02:56:58;;;;;;;1.55;0.73;;;17.50;42.00;;;;;;5073185;28;20037;-66
2022/01/21 02:59:25;;;;;;;3.05;0.90;;;17.50;42.00;;;;;;5069663;28;20029;-67
2022/01/21 03:01:51;;;;;;;3.25;1.00;;;17.50;42.00;;;;;;5072761;28;20063;-67
2022/01/21 03:04:36;;;;;;;1.98;0.90;;;17.50;42.00;;;;;;5066164;28;20021;-67
2022/01/21 03:07:02;;;;;;;3.25;1.10;;;17.50;42.00;;;;;;5068828;28;20066;-67
2022/01/21 03:09:28;;;;;;;2.25;0.93;;;17.50;42.00;;;;;;5041032;28;20103;-67
2022/01/21 03:11:53;;;;;;;1.63;0.70;;;17.50;42.00;;;;;;5073443;28;20120;-66
2022/01/21 03:14:19;;;;;;;2.80;0.93;;;17.40;41.90;;;;;;5072354;28;20052;-67
2022/01/21 03:16:45;;;;;;;2.88;1.00;;;17.40;41.90;;;;;;5059456;28;20091;-67
2022/01/21 03:19:10;;;;;;;4.03;1.10;;;17.40;41.90;;;;;;5060807;28;20028;-67
2022/01/21 03:21:37;;;;;;;2.67;0.70;;;17.40;42.00;;;;;;5053817;28;20131;-66
2022/01/21 03:24:04;;;;;;;5.20;0.80;;;17.40;42.00;;;;;;5066373;28;20028;-67
2022/01/21 03:26:30;;;;;;;1.75;0.88;;;17.40;41.90;;;;;;5063798;28;20029;-66
2022/01/21 03:28:57;;;;;;;1.65;0.70;;;17.40;42.00;;;;;;5060781;28;20013;-66
2022/01/21 03:31:24;;;;;;;3.88;0.70;;;17.30;41.90;;;;;;5072505;28;20067;-67
2022/01/21 03:33:50;;;;;;;1.67;0.75;;;17.30;41.90;;;;;;5055389;28;20077;-66
2022/01/21 03:36:16;;;;;;;1.92;0.60;;;17.30;42.00;;;;;;5058813;28;20024;-66
2022/01/21 03:38:42;;;;;;;2.72;0.90;;;17.30;41.90;;;;;;5057665;28;20033;-67
2022/01/21 03:41:08;;;;;;;1.92;0.75;;;17.30;41.90;;;;;;5067565;28;20052;-67
2022/01/21 03:43:34;;;;;;;2.70;0.90;;;17.30;42.00;;;;;;5073539;28;20024;-66
2022/01/21 03:46:00;;;;;;;1.77;0.70;;;17.30;41.90;;;;;;5057444;28;20099;-67
2022/01/21 03:48:26;;;;;;;1.83;0.77;;;17.30;41.90;;;;;;5053414;28;20028;-67
2022/01/21 03:50:53;;;;;;;2.15;0.68;;;17.20;41.90;;;;;;5071505;28;20035;-66
2022/01/21 03:53:19;;;;;;;1.70;0.45;;;17.30;41.90;;;;;;5065135;28;20396;-66
2022/01/21 03:55:45;;;;;;;2.63;0.90;;;17.20;42.00;;;;;;5066248;28;20040;-67
2022/01/21 03:58:12;;;;;;;1.75;0.47;;;17.20;41.90;;;;;;5070353;28;20025;-67
2022/01/21 04:00:53;;;;;;;2.97;0.90;;;17.20;41.90;;;;;;5066861;28;20029;-67
2022/01/21 04:03:19;;;;;;;2.00;0.70;;;17.20;41.90;;;;;;5073031;28;20032;-66
2022/01/21 04:05:45;;;;;;;2.80;0.88;;;17.20;42.00;;;;;;5066761;28;20376;-66
2022/01/21 04:08:12;;;;;;;2.90;0.77;;;17.20;42.00;;;;;;5043291;28;20040;-66
2022/01/21 04:10:41;;;;;;;2.03;0.75;;;17.20;41.90;;;;;;5069151;28;20017;-67
2022/01/21 04:13:14;;;;;;;2.38;0.80;;;17.10;41.90;;;;;;5052832;28;20021;-66
2022/01/21 04:15:42;;;;;;;1.88;0.73;;;17.10;41.90;;;;;;5067236;28;20020;-66
2022/01/21 04:18:07;;;;;;;2.65;0.70;;;17.10;41.90;;;;;;5060977;28;20021;-66
2022/01/21 04:20:33;;;;;;;2.00;0.77;;;17.10;41.90;;;;;;5062916;28;20073;-67
2022/01/21 04:22:59;;;;;;;2.47;0.68;;;17.10;42.00;;;;;;5058166;28;20421;-66
2022/01/21 04:25:24;;;;;;;2.80;0.75;;;17.10;41.90;;;;;;5067439;28;20070;-66
2022/01/21 04:27:50;;;;;;;2.05;0.80;;;17.10;42.00;;;;;;5054742;28;20082;-66
2022/01/21 04:30:16;;;;;;;3.22;1.10;;;17.00;41.90;;;;;;5067458;28;20056;-66
2022/01/21 04:32:42;;;;;;;2.17;1.00;;;17.00;41.90;;;;;;5073727;28;20032;-66
2022/01/21 04:35:08;;;;;;;3.42;0.95;;;17.00;41.90;;;;;;5065320;28;20025;-66
2022/01/21 04:37:36;;;;;;;3.50;0.77;;;17.00;41.90;;;;;;5056385;28;20029;-67
2022/01/21 04:40:12;;;;;;;2.70;0.70;;;17.00;41.90;;;;;;5065129;28;20074;-66
2022/01/21 04:48:07;;;;;;;1.67;0.52;;;16.90;41.90;;;;;;5043571;28;20079;-66
2022/01/21 04:50:41;;;;;;;1.80;0.77;;;16.90;41.90;;;;;;5060062;28;20465;-67
2022/01/21 04:53:07;;;;;;;2.33;0.80;;;16.90;41.90;;;;;;5059350;28;20048;-66
2022/01/21 04:55:35;;;;;;;1.50;0.70;;;16.90;41.90;;;;;;5074794;28;20041;-67
2022/01/21 04:58:01;;;;;;;2.33;0.90;;;16.90;41.90;;;;;;5075320;28;20024;-67
2022/01/21 05:00:27;;;;;;;2.08;0.65;;;16.90;41.90;;;;;;5071429;28;20052;-66
2022/01/21 05:02:53;;;;;;;2.10;0.60;;;16.90;41.90;;;;;;5060293;28;20103;-66
2022/01/21 05:05:18;;;;;;;2.28;0.73;;;16.90;42.00;;;;;;5070807;28;20108;-66
2022/01/21 05:07:44;;;;;;;3.53;0.60;;;16.90;42.00;;;;;;5074064;28;20395;-66
2022/01/21 05:10:10;;;;;;;3.35;0.70;;;16.80;41.90;;;;;;5074472;28;20028;-66
2022/01/21 05:12:36;;;;;;;2.08;0.70;;;16.80;41.90;;;;;;5075528;28;20365;-66
2022/01/21 05:15:12;;;;;;;2.38;0.70;;;16.80;41.90;;;;;;5057282;28;20032;-66
2022/01/21 05:17:45;;;;;;;1.90;0.70;;;16.80;41.90;;;;;;5068159;28;20474;-66
2022/01/21 05:20:11;;;;;;;3.00;0.77;;;16.80;42.00;;;;;;5067768;28;20048;-66
2022/01/21 05:22:37;;;;;;;2.55;1.00;;;16.80;41.90;;;;;;5055797;28;20476;-67
2022/01/21 05:25:04;;;;;;;1.80;0.57;;;16.80;41.90;;;;;;5069769;28;20035;-67
2022/01/21 05:27:29;;;;;;;1.92;0.65;;;16.80;41.90;;;;;;5074430;28;20017;-67
2022/01/21 05:29:55;;;;;;;2.67;0.75;;;16.80;41.90;;;;;;5073312;28;20052;-67
2022/01/21 05:32:21;;;;;;;1.92;0.75;;;16.80;41.90;;;;;;5074591;28;20388;-67
2022/01/21 05:34:46;;;;;;;2.55;0.60;;;16.70;41.90;;;;;;5071439;28;20079;-67
2022/01/21 05:37:12;;;;;;;2.30;0.70;;;16.70;41.90;;;;;;5037498;28;20033;-67
2022/01/21 05:39:38;;;;;;;1.92;0.70;;;16.70;41.90;;;;;;5043926;28;20604;-67
2022/01/21 05:42:06;;;;;;;2.92;0.52;;;16.70;41.90;;;;;;5073834;28;20079;-66
2022/01/21 05:47:00;;;;;;;2.33;0.63;;;16.70;41.90;;;;;;5055549;28;20064;-67
2022/01/21 05:49:29;;;;;;;1.20;0.70;;;16.70;41.90;;;;;;5058482;28;20032;-67
2022/01/21 05:52:03;;;;;;;2.80;0.70;;;16.70;42.00;;;;;;5069850;28;20020;-67
2022/01/21 05:54:29;;;;;;;3.05;0.52;;;16.70;42.00;;;;;;5064333;28;20035;-67
2022/01/21 05:56:56;;;;;;;1.13;0.40;;;16.60;41.90;;;;;;5048599;28;20061;-67
2022/01/21 05:59:22;;;;;;;1.55;0.50;;;16.60;41.90;;;;;;5069087;28;20041;-67
2022/01/21 06:01:48;;;;;;;1.15;0.60;;;16.60;41.90;;;;;;5059122;28;20476;-67
2022/01/21 06:04:14;;;;;;;2.33;0.50;;;16.60;42.30;;;;;;5057465;28;20036;-67
2022/01/21 06:06:39;;;;;;;1.45;0.63;;;16.60;41.90;;;;;;5072079;28;20032;-67
2022/01/21 06:09:06;;;;;;;2.92;0.85;;;16.60;41.90;;;;;;5060400;28;20117;-67
2022/01/21 06:11:33;;;;;;;1.48;0.60;;;16.60;41.90;;;;;;5073791;28;20028;-67
2022/01/21 06:14:00;;;;;;;2.35;0.55;;;16.60;41.90;;;;;;5073675;28;20115;-67
2022/01/21 06:16:26;;;;;;;0.98;0.40;;;16.60;41.90;;;;;;5064021;28;20100;-67
2022/01/21 06:18:52;;;;;;;2.17;0.50;;;16.60;41.90;;;;;;5055610;28;20116;-67
2022/01/21 06:21:18;;;;;;;2.72;0.47;;;16.50;41.90;;;;;;5068527;28;20553;-67
2022/01/21 06:23:43;;;;;;;2.70;0.60;;;16.50;41.90;;;;;;5069921;28;20036;-67
2022/01/21 06:26:09;;;;;;;1.75;0.50;;;16.50;41.90;;;;;;5039960;28;20548;-67
2022/01/21 06:28:35;;;;;;;2.70;0.70;;;16.50;42.00;;;;;;5054290;28;20029;-67
2022/01/21 06:31:01;;;;;;;1.95;0.63;;;16.50;41.90;;;;;;5072982;28;20036;-67
2022/01/21 06:33:26;;;;;;;1.20;0.43;;;16.50;41.90;;;;;;5074309;28;20024;-67
2022/01/21 06:35:52;;;;;;;2.05;0.50;;;16.50;42.00;;;;;;5062985;28;20494;-67
2022/01/21 06:38:20;;;;;;;2.65;0.70;;;16.50;41.90;;;;;;5060904;28;20024;-67
2022/01/21 06:40:46;;;;;;;1.75;0.55;;;16.50;42.00;;;;;;5072181;28;20175;-66
2022/01/21 06:43:12;;;;;;;1.30;0.68;;;16.40;41.90;;;;;;5069247;28;20443;-67
2022/01/21 06:45:38;;;;;;;2.35;0.60;;;16.50;42.00;;;;;;5059448;28;20013;-66
2022/01/21 06:48:04;;;;;;;1.10;0.57;;;16.40;42.00;;;;;;5056363;28;20378;-66
2022/01/21 06:50:32;;;;;;;2.72;0.90;;;16.40;41.90;;;;;;5066318;28;20025;-66
2022/01/21 06:52:57;;;;;;;2.03;0.60;;;16.40;41.90;;;;;;5073544;28;20032;-66
2022/01/21 06:55:23;;;;;;;2.22;0.52;;;16.40;41.90;;;;;;5053996;28;20059;-66
2022/01/21 06:57:49;;;;;;;2.20;0.73;;;16.40;42.00;;;;;;5065544;28;20028;-66
2022/01/21 07:00:18;;;;;;;1.80;0.40;;;16.40;42.00;;;;;;5069240;28;20040;-67
2022/01/21 07:02:45;;;;;;;1.70;0.93;;;16.40;42.00;;;;;;5059070;28;20025;-67
2022/01/21 07:05:11;;;;;;;1.50;0.60;;;16.40;42.00;;;;;;5066158;28;20098;-67
2022/01/21 07:07:37;;;;;;;1.75;0.40;;;16.40;42.00;;;;;;5055932;28;20480;-67
2022/01/21 07:10:05;;;;;;;2.33;0.77;;;16.40;42.00;;;;;;5072011;28;20031;-66
2022/01/21 07:12:31;;;;;;;2.10;0.47;;;16.40;42.00;;;;;;5065658;28;20033;-67
2022/01/21 07:14:57;;;;;;;2.63;0.60;;;16.30;42.00;;;;;;5042360;28;20550;-67
2022/01/21 07:17:22;;;;;;;2.20;0.65;;;16.30;42.00;;;;;;5055133;28;20087;-67
2022/01/21 07:19:48;;;;;;;2.03;0.50;;;16.30;42.00;;;;;;5046357;28;20086;-66
2022/01/21 07:22:14;;;;;;;0.95;0.40;;;16.30;42.00;;;;;;5056781;28;20040;-67
2022/01/21 07:24:39;;;;;;;2.90;0.68;;;16.30;42.00;;;;;;5069958;28;20111;-67
2022/01/21 07:27:05;;;;;;;2.28;0.55;;;16.30;42.00;;;;;;5064878;28;20029;-67
2022/01/21 07:29:31;;;;;;;0.98;0.50;;;16.30;42.00;;;;;;5071469;28;20032;-66
2022/01/21 07:31:58;;;;;;;2.35;0.80;;;16.30;42.00;;;;;;5071550;28;20111;-72
2022/01/21 07:34:25;;;;;;;3.83;1.23;;;16.20;41.20;;;;;;5036324;28;20116;-73
2022/01/21 07:36:52;;;;;;;3.42;1.15;;;15.70;39.90;;;;;;5055205;28;20029;-73
2022/01/21 07:39:18;;;;;;;2.13;0.90;;;15.00;41.00;;;;;;5052943;28;20040;-69
2022/01/21 07:41:44;;;;;;;5.78;1.30;;;14.50;42.20;;;;;;5055553;28;20087;-69
2022/01/21 07:44:10;;;;;;;4.97;1.00;;;14.20;42.70;;;;;;5061208;28;20033;-69
2022/01/21 07:46:35;;;;;;;3.75;1.00;;;14.00;43.40;;;;;;5072961;28;20024;-69
2022/01/21 07:49:01;;;;;;;2.67;1.05;;;13.90;43.80;;;;;;5055242;28;20028;-68
2022/01/21 07:51:27;;;;;;;6.53;1.70;;;13.90;44.00;;;;;;5060281;28;20033;-68
2022/01/21 07:53:53;;;;;;;3.88;0.95;;;13.80;44.10;;;;;;5053026;28;20083;-68
2022/01/21 07:56:18;;;;;;;2.53;1.10;;;13.80;44.70;;;;;;5047283;28;20433;-69
2022/01/21 07:58:44;;;;;;;2.85;1.00;;;13.80;44.80;;;;;;5069977;28;20388;-67
2022/01/21 08:01:10;;;;;;;1.40;0.60;;;13.90;44.90;;;;;;5073233;28;20071;-67
2022/01/21 08:03:37;;;;;;;5.20;0.63;;;14.10;45.90;;;;;;5076288;28;20060;-67
2022/01/21 08:06:04;;;;;;;1.85;0.55;;;14.50;45.70;;;;;;5076811;28;20025;-67
2022/01/21 08:08:30;;;;;;;2.75;0.63;;;14.90;45.30;;;;;;5076717;28;20009;-67
2022/01/21 08:10:56;;;;;;;2.70;0.50;;;15.20;44.80;;;;;;5076789;28;20464;-67
2022/01/21 08:13:22;;;;;;;2.90;0.70;;;15.50;44.30;;;;;;5076821;28;20035;-67
2022/01/21 08:15:48;;;;;;;2.28;0.70;;;15.80;43.80;;;;;;5076642;28;20063;-67
2022/01/21 08:18:15;;;;;;;4.13;0.77;;;16.00;43.40;;;;;;5077005;28;20020;-68
2022/01/21 08:20:42;;;;;;;3.42;0.90;;;16.20;43.10;;;;;;5045339;28;20028;-67
2022/01/21 08:23:08;;;;;;;2.53;0.80;;;16.40;42.70;;;;;;5062306;28;20078;-67
2022/01/21 08:25:33;;;;;;;2.97;0.75;;;16.60;42.20;;;;;;5056375;28;20107;-66
2022/01/21 08:27:59;;;;;;;2.40;0.70;;;16.80;41.90;;;;;;5057572;28;20033;-66
2022/01/21 08:30:25;;;;;;;1.42;0.60;;;17.00;41.50;;;;;;5070073;28;20136;-67
2022/01/21 08:32:51;;;;;;;1.77;0.75;;;17.20;41.30;;;;;;5044741;28;20033;-67
2022/01/21 08:35:17;;;;;;;2.25;0.70;;;17.30;41.10;;;;;;5055430;28;20033;-67
2022/01/21 08:37:42;;;;;;;2.58;0.73;;;17.40;41.10;;;;;;5073301;28;20492;-67
2022/01/21 08:40:09;;;;;;;2.78;0.70;;;17.50;40.90;;;;;;5074196;28;20053;-67
2022/01/21 08:42:34;;;;;;;2.72;0.75;;;17.60;40.90;;;;;;5074319;28;20127;-67
2022/01/21 08:45:00;;;;;;;1.98;0.95;;;17.60;40.80;;;;;;5070345;28;20104;-67
2022/01/21 08:47:26;;;;;;;2.35;0.98;;;17.70;40.80;;;;;;5073427;28;20056;-67
2022/01/21 08:49:53;;;;;;;2.65;0.85;;;17.70;40.80;;;;;;5055730;28;20017;-68
2022/01/21 08:52:20;;;;;;;2.90;0.93;;;17.70;40.60;;;;;;5074121;28;20046;-69
2022/01/21 08:54:47;;;;;;;4.45;1.30;;;17.80;40.50;;;;;;5074056;28;20066;-68
2022/01/21 08:57:13;;;;;;;4.13;1.25;;;17.80;40.60;;;;;;5073379;28;20423;-68
2022/01/21 08:59:39;;;;;;;2.75;1.13;;;17.90;41.10;;;;;;5067100;28;20036;-68
2022/01/21 09:02:04;;;;;;;4.53;0.98;;;18.00;41.00;;;;;;5048069;28;20086;-68
2022/01/21 09:04:30;;;;;;;3.53;1.20;;;18.00;40.70;;;;;;5070316;28;20100;-71
2022/01/21 09:06:56;;;;;;;2.97;1.33;;;18.00;40.50;;;;;;5060565;28;20033;-69
2022/01/21 09:09:21;;;;;;;6.15;1.42;;;18.10;40.30;;;;;;5056284;28;20029;-69
2022/01/21 09:11:47;;;;;;;4.18;1.42;;;18.20;40.20;;;;;;5059631;28;20035;-67
2022/01/21 09:14:13;;;;;;;4.00;1.50;;;18.30;40.20;;;;;;5073553;28;20032;-68
2022/01/21 09:16:42;;;;;;;3.40;1.50;;;18.30;40.00;;;;;;5073901;28;20134;-68
2022/01/21 09:19:08;;;;;;;6.03;1.23;;;18.40;39.90;;;;;;5074440;28;20047;-68
2022/01/21 09:21:42;;;;;;;4.32;1.50;;;18.40;39.70;;;;;;5075625;28;20035;-67
2022/01/21 09:24:08;;;;;;;6.47;1.48;;;18.50;39.40;;;;;;5056999;28;20066;-67
2022/01/21 09:26:34;;;;;;;5.65;1.40;;;18.60;39.40;;;;;;5074465;28;20519;-67
2022/01/21 09:29:03;;;;;;;6.20;1.60;;;18.60;38.90;;;;;;5071987;28;20071;-67
2022/01/21 09:31:29;;;;;;;7.38;1.60;;;18.70;38.80;;;;;;5073139;28;20029;-66
2022/01/21 09:33:55;;;;;;;5.30;1.58;;;18.80;38.70;;;;;;5061333;28;20029;-67
2022/01/21 09:36:21;;;;;;;2.38;1.58;;;18.80;38.60;;;;;;5055439;28;20028;-66
2022/01/21 09:38:47;;;;;;;2.95;1.23;;;18.80;38.60;;;;;;5063095;28;20496;-66
2022/01/21 09:41:15;;;;;;;3.60;1.38;;;18.80;38.60;;;;;;5069570;28;20080;-66
2022/01/21 09:43:45;;;;;;;4.90;1.30;;;18.80;38.50;;;;;;5075317;28;20103;-67
2022/01/21 09:46:12;;;;;;;4.70;1.27;;;18.80;38.40;;;;;;5075070;28;20016;-67
2022/01/21 09:48:51;;;;;;;4.47;1.42;;;18.80;38.50;;;;;;5075539;28;20464;-66
2022/01/21 09:51:17;;;;;;;4.25;1.40;;;18.90;38.50;;;;;;5074628;28;20024;-67
2022/01/21 09:53:43;;;;;;;3.05;1.10;;;18.90;38.40;;;;;;5075026;28;20423;-66
2022/01/21 09:56:09;;;;;;;2.20;1.35;;;18.90;38.40;;;;;;5071104;28;20025;-66
2022/01/21 09:58:35;;;;;;;2.88;0.90;;;18.90;38.30;;;;;;5073471;28;20506;-66
2022/01/21 10:01:06;;;;;;;6.95;1.30;;;18.90;38.30;;;;;;5080649;28;20425;-66
2022/01/21 10:03:51;;;;;;;5.67;1.00;;;19.00;38.20;;;;;;5080734;28;20048;-66
2022/01/21 10:06:18;;;;;;;2.72;1.13;;;19.00;37.90;;;;;;5072418;28;20262;-66
2022/01/21 10:08:44;;;;;;;3.40;1.50;;;19.00;38.10;;;;;;5063793;28;20021;-65
2022/01/21 10:11:11;;;;;;;2.33;1.10;;;19.10;38.10;;;;;;5056834;28;20099;-66
2022/01/21 10:13:38;;;;;;;1.30;0.82;;;19.20;38.20;;;;;;5057219;28;20056;-64
2022/01/21 10:16:05;;;;;;;2.65;0.82;;;19.30;38.20;;;;;;5058024;28;20017;-66
2022/01/21 10:18:31;;;;;;;2.97;0.93;;;19.40;38.00;;;;;;5061974;28;20044;-65
2022/01/21 10:21:04;;;;;;;1.67;0.70;;;19.40;37.90;;;;;;5057118;28;20029;-66
2022/01/21 10:23:33;;;;;;;2.30;0.93;;;19.50;37.80;;;;;;5060249;28;20079;-66
2022/01/21 10:26:10;;;;;;;1.55;0.80;;;19.50;37.60;;;;;;5071810;28;20020;-66
2022/01/21 10:28:41;;;;;;;2.08;0.80;;;19.60;37.50;;;;;;5062391;28;20020;-65
2022/01/21 10:31:14;;;;;;;2.10;0.70;;;19.70;37.50;;;;;;5080437;28;20032;-66
2022/01/21 10:33:44;;;;;;;3.22;1.05;;;19.80;37.50;;;;;;5080611;28;20070;-66
2022/01/21 10:36:15;;;;;;;2.88;0.77;;;19.80;37.50;;;;;;5080413;28;20103;-66
2022/01/21 10:38:46;;;;;;;1.65;0.70;;;19.80;37.40;;;;;;5080261;28;20529;-66
2022/01/21 10:41:16;;;;;;;3.08;0.98;;;19.80;37.30;;;;;;5079543;28;20053;-66
2022/01/21 10:43:44;;;;;;;2.10;1.00;;;19.90;37.20;;;;;;5079767;28;20043;-66
2022/01/21 10:46:15;;;;;;;1.90;0.95;;;19.90;37.00;;;;;;5079292;28;20375;-67
2022/01/21 10:49:06;;;;;;;2.58;0.90;;;20.00;38.70;;;;;;5062010;28;20084;-68
2022/01/21 10:51:37;;;;;;;4.60;1.20;;;20.00;39.10;;;;;;5079617;28;20021;-67
2022/01/21 10:54:18;;;;;;;3.97;0.95;;;20.00;38.60;;;;;;5061570;28;20475;-67
2022/01/21 10:57:02;;;;;;;3.92;0.98;;;20.00;38.60;;;;;;5065350;28;20028;-67
2022/01/21 10:59:49;;;;;;;3.25;0.70;;;20.00;38.80;;;;;;5054770;28;20037;-67
2022/01/21 11:02:53;;;;;;;5.50;1.23;;;20.00;39.00;;;;;;5056023;28;20044;-67
2022/01/21 11:05:24;;;;;;;2.20;0.70;;;20.00;38.50;;;;;;5055546;28;20017;-67
2022/01/21 11:08:31;;;;;;;3.28;0.90;;;20.00;38.70;;;;;;5062157;28;20032;-66
2022/01/21 11:10:51;;;;;;;3.20;1.15;;;19.90;38.70;;;;;;5069961;28;20032;-66
2022/01/21 11:13:20;;;;;;;3.00;0.77;;;20.00;38.80;;;;;;5053167;28;20024;-67
2022/01/21 11:15:54;;;;;;;3.63;1.23;;;20.00;38.80;;;;;;5062411;28;20375;-67
2022/01/21 11:18:21;;;;;;;2.28;1.10;;;20.00;38.60;;;;;;5072211;28;20384;-67
2022/01/21 11:20:50;;;;;;;1.92;0.80;;;20.10;38.70;;;;;;5071401;28;20021;-67
2022/01/21 11:23:21;;;;;;;1.80;0.60;;;20.10;38.60;;;;;;5071391;28;20379;-67
2022/01/21 11:25:46;;;;;;;2.55;0.95;;;20.10;38.60;;;;;;5054622;28;20029;-67
2022/01/21 11:28:20;;;;;;;2.55;0.88;;;20.10;38.60;;;;;;5071826;28;20033;-67
2022/01/21 11:30:47;;;;;;;3.80;1.08;;;20.10;38.60;;;;;;5067548;28;20483;-67
2022/01/21 11:33:13;;;;;;;2.72;1.05;;;20.10;38.60;;;;;;5070455;28;20379;-67
2022/01/21 11:35:39;;;;;;;3.85;0.80;;;20.10;38.60;;;;;;5061073;28;20107;-69
2022/01/21 11:38:08;;;;;;;3.33;0.77;;;20.20;38.60;;;;;;5069073;28;20056;-68
2022/01/21 11:40:34;;;;;;;2.60;0.70;;;20.10;38.60;;;;;;5068985;28;20040;-68
2022/01/21 11:43:03;;;;;;;2.42;0.85;;;20.10;38.60;;;;;;5046265;28;20043;-66
2022/01/21 11:50:46;;;;;;;2.10;0.85;;;20.10;38.70;;;;;;5071462;28;20495;-68
2022/01/21 11:53:12;;;;;;;1.73;0.60;;;20.10;38.70;;;;;;5066157;28;20471;-68
2022/01/21 11:55:45;;;;;;;1.85;0.68;;;20.10;38.70;;;;;;5064164;28;20387;-65
2022/01/21 11:58:22;;;;;;;3.75;0.82;;;20.20;38.70;;;;;;5067554;28;20024;-64
2022/01/21 12:00:50;;;;;;;5.60;0.80;;;20.20;38.70;;;;;;5066996;28;20029;-66
2022/01/21 12:03:21;;;;;;;2.58;0.90;;;20.20;38.70;;;;;;5052999;28;20021;-64
2022/01/21 12:05:47;;;;;;;2.72;0.70;;;20.20;38.60;;;;;;5067327;28;20016;-66
2022/01/21 12:08:13;;;;;;;2.28;0.90;;;20.20;38.60;;;;;;5072537;28;20021;-69
2022/01/21 12:10:43;;;;;;;1.83;0.80;;;20.20;38.60;;;;;;5072803;28;20104;-65
2022/01/21 12:13:20;;;;;;;1.48;0.55;;;20.20;38.60;;;;;;5062273;28;20029;-64
2022/01/21 12:20:55;;;;;;;3.00;0.90;;;20.10;38.60;;;;;;5065471;28;20489;-66
2022/01/21 12:23:25;;;;;;;1.63;0.50;;;20.10;38.70;;;;;;5061088;28;20034;-65
2022/01/21 12:26:16;;;;;;;2.17;0.65;;;20.10;38.70;;;;;;5069933;28;20491;-67
2022/01/21 12:29:03;;;;;;;1.95;0.70;;;20.10;38.80;;;;;;5068434;28;20036;-67
2022/01/21 12:31:39;;;;;;;3.42;0.95;;;20.00;38.70;;;;;;5063763;28;20094;-67
2022/01/21 12:34:09;;;;;;;1.83;0.75;;;20.00;38.60;;;;;;5069803;28;20033;-67
2022/01/21 12:36:40;;;;;;;4.18;0.98;;;20.00;38.80;;;;;;5055586;28;20032;-67
2022/01/21 12:39:42;;;;;;;2.50;0.85;;;20.00;38.80;;;;;;5068031;28;20035;-67
2022/01/21 12:42:29;;;;;;;6.07;0.88;;;20.00;38.70;;;;;;5071387;28;20036;-68
2022/01/21 12:45:17;;;;;;;2.90;0.70;;;20.00;38.70;;;;;;5069766;28;20078;-66
2022/01/21 12:47:46;;;;;;;3.28;0.82;;;19.90;38.70;;;;;;5070982;28;20028;-66
2022/01/21 12:50:29;;;;;;;1.92;0.80;;;19.80;38.80;;;;;;5073426;28;20021;-67
2022/01/21 12:58:24;;;;;;;2.10;0.80;;;19.80;38.80;;;;;;5073270;28;20132;-66
2022/01/21 13:00:57;;;;;;;3.80;0.90;;;19.80;38.90;;;;;;5074546;28;20503;-66
2022/01/21 13:03:28;;;;;;;2.83;0.85;;;19.80;38.80;;;;;;5074700;28;20028;-67
2022/01/21 13:06:20;;;;;;;2.95;0.80;;;19.80;38.80;;;;;;5070731;28;20444;-66
2022/01/21 13:09:00;;;;;;;1.45;0.63;;;19.80;38.80;;;;;;5067717;28;20027;-66
2022/01/21 13:11:28;;;;;;;2.28;0.77;;;19.80;38.90;;;;;;5063891;28;20028;-67
2022/01/21 13:17:01;;;;;;;1.73;0.63;;;19.80;39.10;;;;;;5067322;28;20044;-67
2022/01/21 13:19:48;;;;;;;3.70;0.77;;;19.70;39.10;;;;;;5065364;28;20032;-67
2022/01/21 13:22:20;;;;;;;3.35;0.93;;;19.80;39.20;;;;;;5074139;28;20055;-67
2022/01/21 13:25:02;;;;;;;3.25;0.98;;;19.80;39.20;;;;;;5074538;28;20059;-67
2022/01/21 13:27:28;;;;;;;2.45;1.00;;;19.80;39.20;;;;;;5066957;28;20033;-67
2022/01/21 13:30:03;;;;;;;2.40;0.60;;;19.80;39.40;;;;;;5067386;28;20036;-67
2022/01/21 13:32:29;;;;;;;2.05;0.70;;;19.80;39.40;;;;;;5072085;28;20032;-67
2022/01/21 13:35:21;;;;;;;1.65;0.45;;;19.80;39.50;;;;;;5074536;28;20025;-67
2022/01/21 13:38:20;;;;;;;1.98;0.90;;;19.80;39.50;;;;;;5075462;28;20108;-67
2022/01/21 13:40:52;;;;;;;2.50;0.70;;;19.80;39.50;;;;;;5046233;28;20049;-66
2022/01/21 13:43:22;;;;;;;1.98;0.68;;;19.80;39.60;;;;;;5051529;28;20365;-66
2022/01/21 13:45:56;;;;;;;1.67;0.77;;;19.80;39.60;;;;;;5071457;28;20358;-66
2022/01/21 13:48:23;;;;;;;2.95;0.95;;;19.80;39.60;;;;;;5068370;28;20060;-66
2022/01/21 13:50:49;;;;;;;1.30;0.52;;;19.80;39.50;;;;;;5072969;28;20106;-66
2022/01/21 13:53:15;;;;;;;2.67;0.70;;;19.80;39.70;;;;;;5050387;28;20024;-66
2022/01/21 13:55:43;;;;;;;3.15;0.80;;;19.80;39.90;;;;;;5067282;28;20157;-66
2022/01/21 13:58:13;;;;;;;3.75;1.10;;;19.80;40.20;;;;;;5074575;28;20025;-66
2022/01/21 14:00:39;;;;;;;3.40;1.02;;;19.80;40.20;;;;;;5072478;28;20024;-65
2022/01/21 14:03:14;;;;;;;4.05;1.20;;;19.80;40.30;;;;;;5066950;28;20032;-67